Time;durP1;ratioP1;P1;durP2;ratioP2;P2;SDS_P1;SDS_P2;PMS_P1;PMS_P2;Temp;Humidity;BMP_temperature;BMP_pressure;BME280_temperature;BME280_humidity;BME280_pressure;Samples;Min_cycle;Max_cycle;Signal;HPM_P1;HPM_P2
2021/08/22 00:01:53;;;;;;;7.15;5.43;;;;;;;;;;5091700;28;20130;-69
2021/08/22 00:04:20;;;;;;;8.02;5.25;;;;;;;;;;5093808;28;20056;-69
2021/08/22 00:06:47;;;;;;;8.15;5.57;;;;;;;;;;5111992;28;20460;-69
2021/08/22 00:09:13;;;;;;;8.82;5.40;;;;;;;;;;5112356;28;20056;-69
2021/08/22 00:11:40;;;;;;;9.38;5.40;;;;;;;;;;5112164;28;20051;-69
2021/08/22 00:14:06;;;;;;;8.35;5.30;;;;;;;;;;5111961;28;20052;-69
2021/08/22 00:16:33;;;;;;;8.98;4.78;;;;;;;;;;5112195;28;20048;-69
2021/08/22 00:18:59;;;;;;;9.55;5.18;;;;;;;;;;5112078;28;20057;-69
2021/08/22 00:21:27;;;;;;;9.07;5.25;;;;;;;;;;5110987;28;20047;-69
2021/08/22 00:23:53;;;;;;;13.30;5.30;;;;;;;;;;5110795;28;20507;-69
2021/08/22 00:26:20;;;;;;;6.65;4.85;;;;;;;;;;5111744;28;20044;-69
2021/08/22 00:28:46;;;;;;;8.95;5.18;;;;;;;;;;5111860;28;20059;-69
2021/08/22 00:31:13;;;;;;;10.43;5.50;;;;;;;;;;5111866;28;20500;-69
2021/08/22 00:33:39;;;;;;;8.55;4.82;;;;;;;;;;5111703;28;20465;-69
2021/08/22 00:36:05;;;;;;;9.02;5.72;;;;;;;;;;5111896;28;20039;-69
2021/08/22 00:38:33;;;;;;;20.42;5.72;;;;;;;;;;5111928;28;20468;-70
2021/08/22 00:41:00;;;;;;;9.60;5.18;;;;;;;;;;5111803;28;20640;-69
2021/08/22 00:43:27;;;;;;;8.13;5.43;;;;;;;;;;5111610;28;20055;-69
2021/08/22 00:45:54;;;;;;;9.65;4.97;;;;;;;;;;5111680;28;20417;-69
2021/08/22 00:48:21;;;;;;;8.65;5.25;;;;;;;;;;5111697;28;20526;-69
2021/08/22 00:50:48;;;;;;;8.25;4.68;;;;;;;;;;5111371;28;20058;-69
2021/08/22 00:53:14;;;;;;;8.00;5.55;;;;;;;;;;5111520;28;20047;-69
2021/08/22 00:55:42;;;;;;;8.90;4.78;;;;;;;;;;5111638;28;20385;-69
2021/08/22 00:58:09;;;;;;;8.25;5.03;;;;;;;;;;5111761;28;20434;-69
2021/08/22 01:00:36;;;;;;;10.52;5.28;;;;;;;;;;5111697;28;20043;-69
2021/08/22 01:03:07;;;;;;;9.45;4.80;;;;;;;;;;5112339;28;20043;-70
2021/08/22 01:05:41;;;;;;;6.93;4.47;;;;;;;;;;5112586;28;20055;-70
2021/08/22 01:08:12;;;;;;;10.40;5.10;;;;;;;;;;5115386;28;20503;-70
2021/08/22 01:10:40;;;;;;;8.50;5.80;;;;;;;;;;5115433;28;20129;-70
2021/08/22 01:13:10;;;;;;;8.27;4.55;;;;;;;;;;5115258;28;20055;-70
2021/08/22 01:15:38;;;;;;;8.18;5.03;;;;;;;;;;5115198;28;20043;-70
2021/08/22 01:18:06;;;;;;;8.65;5.03;;;;;;;;;;5115430;28;20062;-70
2021/08/22 01:20:37;;;;;;;7.97;4.63;;;;;;;;;;5115085;28;20052;-70
2021/08/22 01:23:05;;;;;;;9.20;5.45;;;;;;;;;;5114136;28;20056;-70
2021/08/22 01:25:32;;;;;;;9.13;5.30;;;;;;;;;;5114375;28;20052;-70
2021/08/22 01:27:59;;;;;;;10.60;7.20;;;;;;;;;;5114756;28;20059;-70
2021/08/22 01:30:27;;;;;;;11.55;6.05;;;;;;;;;;5114735;28;20055;-70
2021/08/22 01:32:55;;;;;;;9.23;6.13;;;;;;;;;;5114594;28;20063;-70
2021/08/22 01:35:23;;;;;;;8.13;5.30;;;;;;;;;;5114850;28;20632;-69
2021/08/22 01:37:51;;;;;;;11.18;6.40;;;;;;;;;;5113858;27;20055;-69
2021/08/22 01:40:19;;;;;;;8.15;6.00;;;;;;;;;;5107086;28;20484;-69
2021/08/22 01:42:46;;;;;;;9.23;6.18;;;;;;;;;;5096732;28;20141;-69
2021/08/22 01:45:15;;;;;;;10.65;5.32;;;;;;;;;;5114230;28;20050;-69
2021/08/22 01:47:43;;;;;;;8.80;5.75;;;;;;;;;;5114283;28;20048;-69
2021/08/22 01:50:12;;;;;;;8.52;6.13;;;;;;;;;;5114473;28;20053;-69
2021/08/22 01:52:39;;;;;;;9.80;5.35;;;;;;;;;;5114332;28;20591;-69
2021/08/22 01:55:06;;;;;;;9.68;6.28;;;;;;;;;;5114017;28;20119;-69
2021/08/22 01:57:33;;;;;;;9.20;5.63;;;;;;;;;;5114023;28;20058;-69
2021/08/22 02:00:00;;;;;;;8.80;5.47;;;;;;;;;;5114312;28;20051;-70
2021/08/22 02:02:26;;;;;;;9.77;5.63;;;;;;;;;;5114254;28;20400;-69
2021/08/22 02:04:56;;;;;;;15.05;6.60;;;;;;;;;;5114421;28;20044;-69
2021/08/22 02:07:25;;;;;;;10.35;5.43;;;;;;;;;;5114228;28;20052;-69
2021/08/22 02:09:57;;;;;;;9.20;5.63;;;;;;;;;;5114030;28;20050;-69
2021/08/22 02:12:23;;;;;;;8.20;5.90;;;;;;;;;;5105622;28;20047;-69
2021/08/22 02:14:55;;;;;;;8.80;6.30;;;;;;;;;;5101999;28;20047;-69
2021/08/22 02:17:23;;;;;;;9.30;5.93;;;;;;;;;;5112912;28;20050;-69
2021/08/22 02:19:49;;;;;;;11.70;7.60;;;;;;;;;;5113755;28;20067;-69
2021/08/22 02:22:16;;;;;;;9.55;6.40;;;;;;;;;;5114085;28;20864;-69
2021/08/22 02:24:43;;;;;;;10.15;6.82;;;;;;;;;;5111960;28;20518;-69
2021/08/22 02:27:10;;;;;;;11.07;7.47;;;;;;;;;;5113651;28;20495;-69
2021/08/22 02:29:46;;;;;;;15.27;8.30;;;;;;;;;;5113537;28;20056;-69
2021/08/22 02:32:12;;;;;;;11.55;7.82;;;;;;;;;;5113926;28;20043;-69
2021/08/22 02:34:38;;;;;;;11.68;7.78;;;;;;;;;;5113932;28;20063;-70
2021/08/22 02:37:05;;;;;;;13.60;7.10;;;;;;;;;;5113618;28;20047;-69
2021/08/22 02:39:31;;;;;;;11.70;8.52;;;;;;;;;;5104137;28;20048;-70
2021/08/22 02:41:59;;;;;;;11.70;7.55;;;;;;;;;;5093224;28;20047;-69
2021/08/22 02:44:25;;;;;;;10.20;7.53;;;;;;;;;;5100815;28;20047;-69
2021/08/22 02:46:52;;;;;;;10.95;7.70;;;;;;;;;;5113546;28;20047;-69
2021/08/22 02:49:18;;;;;;;12.38;8.60;;;;;;;;;;5113571;28;20075;-69
2021/08/22 02:51:45;;;;;;;11.90;8.82;;;;;;;;;;5113113;28;20055;-69
2021/08/22 02:54:11;;;;;;;11.32;7.65;;;;;;;;;;5113180;28;20048;-69
2021/08/22 02:56:38;;;;;;;18.70;9.23;;;;;;;;;;5113327;28;20483;-69
2021/08/22 02:59:05;;;;;;;10.98;7.53;;;;;;;;;;5113113;28;20405;-69
2021/08/22 03:01:33;;;;;;;10.95;7.70;;;;;;;;;;5113195;28;20054;-69
2021/08/22 03:03:59;;;;;;;10.90;7.57;;;;;;;;;;5113164;28;20047;-69
2021/08/22 03:06:26;;;;;;;10.43;7.05;;;;;;;;;;5112942;28;20050;-69
2021/08/22 03:08:52;;;;;;;11.35;7.10;;;;;;;;;;5113041;28;20044;-69
2021/08/22 03:11:19;;;;;;;11.57;7.80;;;;;;;;;;5113125;28;20054;-69
2021/08/22 03:13:46;;;;;;;13.60;8.25;;;;;;;;;;5112084;28;20381;-68
2021/08/22 03:16:14;;;;;;;12.88;8.38;;;;;;;;;;5111715;28;20035;-68
2021/08/22 03:18:41;;;;;;;11.57;7.78;;;;;;;;;;5105289;28;20415;-68
2021/08/22 03:21:07;;;;;;;12.00;7.70;;;;;;;;;;5112656;28;20508;-68
2021/08/22 03:23:34;;;;;;;10.45;7.50;;;;;;;;;;5111940;28;20055;-68
2021/08/22 03:26:02;;;;;;;9.77;7.47;;;;;;;;;;5110880;28;20682;-68
2021/08/22 03:28:29;;;;;;;12.10;7.85;;;;;;;;;;5112051;28;20070;-68
2021/08/22 03:30:55;;;;;;;11.88;7.32;;;;;;;;;;5110657;28;20469;-68
2021/08/22 03:33:23;;;;;;;10.38;6.20;;;;;;;;;;5108605;28;20499;-68
2021/08/22 03:35:50;;;;;;;9.70;6.75;;;;;;;;;;5098423;28;20051;-68
2021/08/22 03:38:16;;;;;;;11.27;7.28;;;;;;;;;;5105110;28;20052;-68
2021/08/22 03:40:43;;;;;;;10.50;7.22;;;;;;;;;;5092347;28;20048;-68
2021/08/22 03:43:09;;;;;;;9.98;6.75;;;;;;;;;;5092056;28;20059;-67
2021/08/22 03:45:36;;;;;;;10.27;7.55;;;;;;;;;;5091868;28;20060;-67
2021/08/22 03:48:02;;;;;;;10.00;7.25;;;;;;;;;;5092090;28;20048;-67
2021/08/22 03:50:30;;;;;;;9.48;6.10;;;;;;;;;;5091973;28;20523;-67
2021/08/22 03:52:57;;;;;;;9.70;6.70;;;;;;;;;;5091711;28;20044;-67
2021/08/22 03:55:23;;;;;;;10.80;6.07;;;;;;;;;;5104853;28;20084;-67
2021/08/22 03:57:50;;;;;;;11.30;6.00;;;;;;;;;;5112262;28;20477;-67
2021/08/22 04:00:17;;;;;;;9.93;7.35;;;;;;;;;;5111939;28;20054;-67
2021/08/22 04:02:44;;;;;;;9.88;7.20;;;;;;;;;;5111814;28;20055;-67
2021/08/22 04:05:12;;;;;;;13.02;7.63;;;;;;;;;;5112165;28;20400;-68
2021/08/22 04:07:45;;;;;;;10.20;7.25;;;;;;;;;;5112069;28;20459;-67
2021/08/22 04:10:12;;;;;;;11.43;7.60;;;;;;;;;;5112081;28;20083;-68
2021/08/22 04:12:38;;;;;;;11.50;7.97;;;;;;;;;;5112043;28;20514;-68
2021/08/22 04:15:05;;;;;;;13.57;8.82;;;;;;;;;;5112168;28;20051;-68
2021/08/22 04:17:32;;;;;;;12.65;8.05;;;;;;;;;;5112132;28;20395;-68
2021/08/22 04:19:58;;;;;;;12.23;8.00;;;;;;;;;;5112012;28;20067;-67
2021/08/22 04:22:25;;;;;;;11.70;7.47;;;;;;;;;;5111859;28;20048;-67
2021/08/22 04:24:53;;;;;;;10.52;7.85;;;;;;;;;;5111435;28;20058;-67
2021/08/22 04:27:19;;;;;;;12.95;8.43;;;;;;;;;;5108980;28;20048;-68
2021/08/22 04:29:46;;;;;;;11.68;8.48;;;;;;;;;;5111757;28;20488;-67
2021/08/22 04:32:12;;;;;;;14.65;9.32;;;;;;;;;;5111953;28;20051;-67
2021/08/22 04:34:39;;;;;;;13.18;8.40;;;;;;;;;;5111796;28;20140;-67
2021/08/22 04:37:06;;;;;;;11.65;7.93;;;;;;;;;;5111886;28;20465;-67
2021/08/22 04:39:32;;;;;;;12.70;7.85;;;;;;;;;;5112111;28;20052;-68
2021/08/22 04:42:00;;;;;;;12.00;7.90;;;;;;;;;;5115102;28;20047;-68
2021/08/22 04:44:26;;;;;;;9.45;7.20;;;;;;;;;;5115837;28;20058;-67
2021/08/22 04:46:53;;;;;;;12.15;8.05;;;;;;;;;;5115843;28;20063;-68
2021/08/22 04:49:19;;;;;;;10.40;7.13;;;;;;;;;;5115865;28;20052;-68
2021/08/22 04:51:46;;;;;;;10.93;7.53;;;;;;;;;;5115364;28;20048;-67
2021/08/22 04:54:12;;;;;;;11.32;7.28;;;;;;;;;;5115252;28;20046;-67
2021/08/22 04:56:40;;;;;;;10.30;7.13;;;;;;;;;;5115155;28;20052;-67
2021/08/22 04:59:07;;;;;;;10.50;6.90;;;;;;;;;;5115358;28;20047;-67
2021/08/22 05:01:34;;;;;;;10.13;6.60;;;;;;;;;;5115688;28;20058;-67
2021/08/22 05:04:00;;;;;;;10.20;7.25;;;;;;;;;;5115378;28;20055;-67
2021/08/22 05:06:27;;;;;;;7.60;5.57;;;;;;;;;;5115237;28;20048;-67
2021/08/22 05:08:53;;;;;;;9.43;6.82;;;;;;;;;;5115411;28;20062;-67
2021/08/22 05:11:20;;;;;;;10.32;6.70;;;;;;;;;;5115224;28;20392;-67
2021/08/22 05:13:46;;;;;;;10.30;6.78;;;;;;;;;;5115316;28;20051;-67
2021/08/22 05:16:15;;;;;;;10.80;6.10;;;;;;;;;;5115135;28;20075;-68
2021/08/22 05:18:41;;;;;;;10.93;6.95;;;;;;;;;;5114515;28;20401;-67
2021/08/22 05:21:08;;;;;;;8.88;5.82;;;;;;;;;;5114911;28;20133;-68
2021/08/22 05:23:34;;;;;;;8.85;5.68;;;;;;;;;;5114700;28;20580;-67
2021/08/22 05:26:01;;;;;;;8.25;5.68;;;;;;;;;;5114208;28;20077;-68
2021/08/22 05:28:28;;;;;;;8.93;6.43;;;;;;;;;;5113780;28;20488;-68
2021/08/22 05:30:55;;;;;;;7.22;5.30;;;;;;;;;;5114938;28;20397;-67
2021/08/22 05:33:22;;;;;;;8.65;5.30;;;;;;;;;;5114881;28;20052;-67
2021/08/22 05:35:49;;;;;;;8.15;4.80;;;;;;;;;;5114918;28;20048;-67
2021/08/22 05:38:15;;;;;;;8.68;4.93;;;;;;;;;;5114619;28;20051;-67
2021/08/22 05:40:42;;;;;;;8.93;4.93;;;;;;;;;;5114835;28;20395;-67
2021/08/22 05:43:08;;;;;;;7.35;4.95;;;;;;;;;;5114108;28;20051;-67
2021/08/22 05:45:35;;;;;;;8.00;4.90;;;;;;;;;;5114267;28;20047;-67
2021/08/22 05:48:01;;;;;;;6.90;4.97;;;;;;;;;;5114250;28;20062;-67
2021/08/22 05:50:29;;;;;;;8.30;5.03;;;;;;;;;;5114405;28;20043;-68
2021/08/22 05:52:56;;;;;;;8.57;5.00;;;;;;;;;;5114175;28;20047;-67
2021/08/22 05:55:22;;;;;;;7.68;4.18;;;;;;;;;;5114708;28;20488;-68
2021/08/22 05:57:49;;;;;;;7.10;4.45;;;;;;;;;;5114593;28;20047;-67
2021/08/22 06:00:16;;;;;;;7.03;4.10;;;;;;;;;;5114507;28;20051;-68
2021/08/22 06:02:42;;;;;;;8.38;4.15;;;;;;;;;;5114397;28;20062;-67
2021/08/22 06:05:10;;;;;;;7.38;4.30;;;;;;;;;;5114150;28;20066;-67
2021/08/22 06:07:37;;;;;;;7.53;4.95;;;;;;;;;;5114225;28;20048;-67
2021/08/22 06:10:06;;;;;;;7.38;5.55;;;;;;;;;;5114197;28;20051;-67
2021/08/22 06:12:33;;;;;;;7.60;4.63;;;;;;;;;;5113876;28;20039;-68
2021/08/22 06:14:59;;;;;;;7.07;4.65;;;;;;;;;;5114130;28;20075;-68
2021/08/22 06:17:26;;;;;;;10.02;4.65;;;;;;;;;;5113976;28;20464;-68
2021/08/22 06:19:53;;;;;;;8.75;4.03;;;;;;;;;;5113868;28;20048;-68
2021/08/22 06:22:19;;;;;;;8.07;4.25;;;;;;;;;;5114168;28;20051;-68
2021/08/22 06:24:47;;;;;;;7.32;4.30;;;;;;;;;;5114130;28;20057;-68
2021/08/22 06:27:14;;;;;;;6.28;4.22;;;;;;;;;;5113349;28;20050;-68
2021/08/22 06:29:41;;;;;;;8.90;4.63;;;;;;;;;;5112493;28;20063;-68
2021/08/22 06:32:08;;;;;;;5.88;3.90;;;;;;;;;;5112947;28;20044;-68
2021/08/22 06:34:34;;;;;;;8.00;4.93;;;;;;;;;;5113643;28;20472;-68
2021/08/22 06:37:01;;;;;;;6.47;3.72;;;;;;;;;;5113686;28;20050;-68
2021/08/22 06:39:27;;;;;;;6.00;3.42;;;;;;;;;;5113624;28;20054;-68
2021/08/22 06:41:55;;;;;;;6.13;3.85;;;;;;;;;;5113716;28;20066;-68
2021/08/22 06:44:22;;;;;;;5.25;3.58;;;;;;;;;;5113419;28;20488;-68
2021/08/22 06:46:48;;;;;;;7.93;4.05;;;;;;;;;;5113314;28;20055;-68
2021/08/22 06:49:15;;;;;;;7.43;4.07;;;;;;;;;;5113210;28;20051;-68
2021/08/22 06:51:42;;;;;;;5.57;3.58;;;;;;;;;;5113542;28;20051;-68
2021/08/22 06:54:09;;;;;;;6.28;3.40;;;;;;;;;;5112855;28;20051;-68
2021/08/22 06:56:35;;;;;;;7.53;3.65;;;;;;;;;;5113122;28;20039;-68
2021/08/22 06:59:03;;;;;;;5.57;3.75;;;;;;;;;;5113075;28;20137;-68
2021/08/22 07:01:29;;;;;;;5.50;3.67;;;;;;;;;;5112665;28;20511;-68
2021/08/22 07:03:56;;;;;;;6.97;3.60;;;;;;;;;;5112404;28;20047;-68
2021/08/22 07:06:22;;;;;;;5.60;3.40;;;;;;;;;;5113322;28;20487;-68
2021/08/22 07:08:49;;;;;;;5.03;3.30;;;;;;;;;;5112929;28;20055;-68
2021/08/22 07:11:15;;;;;;;5.20;2.88;;;;;;;;;;5113140;28;20059;-68
2021/08/22 07:13:42;;;;;;;5.28;3.25;;;;;;;;;;5112944;28;20488;-68
2021/08/22 07:16:10;;;;;;;5.20;3.17;;;;;;;;;;5112893;28;20047;-68
2021/08/22 07:18:36;;;;;;;6.55;3.60;;;;;;;;;;5112651;28;20044;-68
2021/08/22 07:21:04;;;;;;;6.20;3.13;;;;;;;;;;5112756;28;20051;-67
2021/08/22 07:23:31;;;;;;;9.02;3.28;;;;;;;;;;5112754;28;20062;-68
2021/08/22 07:25:57;;;;;;;5.80;3.50;;;;;;;;;;5112604;28;20047;-68
2021/08/22 07:28:24;;;;;;;5.15;3.30;;;;;;;;;;5112372;28;20464;-68
2021/08/22 07:30:50;;;;;;;4.30;2.72;;;;;;;;;;5108978;28;20420;-68
2021/08/22 07:33:18;;;;;;;7.95;3.75;;;;;;;;;;5112303;28;20510;-68
2021/08/22 07:35:44;;;;;;;5.13;2.95;;;;;;;;;;5097637;28;20056;-68
2021/08/22 07:38:11;;;;;;;5.25;3.45;;;;;;;;;;5107758;28;20052;-67
2021/08/22 07:40:39;;;;;;;6.55;3.45;;;;;;;;;;5109152;28;20054;-67
2021/08/22 07:43:05;;;;;;;4.38;2.83;;;;;;;;;;5112231;28;20054;-68
2021/08/22 07:45:32;;;;;;;4.93;3.67;;;;;;;;;;5101384;28;20516;-67
2021/08/22 07:47:58;;;;;;;5.00;3.35;;;;;;;;;;5112124;28;20045;-68
2021/08/22 07:50:26;;;;;;;4.85;3.08;;;;;;;;;;5103709;28;20055;-67
2021/08/22 07:52:53;;;;;;;5.35;3.20;;;;;;;;;;5091917;28;20055;-68
2021/08/22 07:55:19;;;;;;;4.57;3.00;;;;;;;;;;5092156;28;20508;-68
2021/08/22 07:57:46;;;;;;;5.82;3.40;;;;;;;;;;5091846;28;20127;-68
2021/08/22 08:00:13;;;;;;;6.15;3.60;;;;;;;;;;5091721;28;20071;-68
2021/08/22 08:02:40;;;;;;;4.65;3.15;;;;;;;;;;5107447;28;20070;-68
2021/08/22 08:05:07;;;;;;;3.78;2.75;;;;;;;;;;5112067;28;20058;-68
2021/08/22 08:07:35;;;;;;;4.13;2.65;;;;;;;;;;5112145;28;20055;-68
2021/08/22 08:10:01;;;;;;;4.60;2.35;;;;;;;;;;5112294;28;20054;-68
2021/08/22 08:12:28;;;;;;;6.95;3.30;;;;;;;;;;5112126;28;20055;-68
2021/08/22 08:14:55;;;;;;;6.18;2.70;;;;;;;;;;5111878;28;20047;-68
2021/08/22 08:17:21;;;;;;;7.32;2.85;;;;;;;;;;5116326;28;20055;-68
2021/08/22 08:19:48;;;;;;;4.35;2.72;;;;;;;;;;5113735;27;20050;-68
2021/08/22 08:22:14;;;;;;;4.07;3.00;;;;;;;;;;5108180;28;20048;-68
2021/08/22 08:24:42;;;;;;;5.25;3.00;;;;;;;;;;5108190;27;20544;-68
2021/08/22 08:27:09;;;;;;;7.65;2.63;;;;;;;;;;5109989;28;20046;-69
2021/08/22 08:29:35;;;;;;;5.28;3.40;;;;;;;;;;5108601;27;20047;-68
2021/08/22 08:32:02;;;;;;;3.88;2.55;;;;;;;;;;5111945;28;20389;-69
2021/08/22 08:34:29;;;;;;;5.38;3.03;;;;;;;;;;5112656;28;20051;-68
2021/08/22 08:36:55;;;;;;;6.72;2.70;;;;;;;;;;5115765;28;20035;-68
2021/08/22 08:39:22;;;;;;;4.80;2.85;;;;;;;;;;5110735;28;20058;-68
2021/08/22 08:41:50;;;;;;;5.13;3.28;;;;;;;;;;5100521;28;20066;-68
2021/08/22 08:44:17;;;;;;;4.90;3.13;;;;;;;;;;5110001;28;20102;-69
2021/08/22 08:46:45;;;;;;;4.80;3.15;;;;;;;;;;5109296;28;20047;-69
2021/08/22 08:49:12;;;;;;;5.10;3.08;;;;;;;;;;5092172;28;20048;-68
2021/08/22 08:51:44;;;;;;;5.68;3.33;;;;;;;;;;5114638;28;20466;-69
2021/08/22 08:54:11;;;;;;;6.32;3.13;;;;;;;;;;5107756;28;20074;-69
2021/08/22 08:56:37;;;;;;;4.68;3.10;;;;;;;;;;5113545;28;20468;-69
2021/08/22 08:59:05;;;;;;;4.15;3.05;;;;;;;;;;5095129;28;20075;-69
2021/08/22 09:01:32;;;;;;;4.60;2.75;;;;;;;;;;5094734;28;20048;-69
2021/08/22 09:04:09;;;;;;;4.47;3.05;;;;;;;;;;5103886;28;20714;-69
2021/08/22 09:07:01;;;;;;;4.13;3.05;;;;;;;;;;5105167;28;20047;-69
2021/08/22 09:10:04;;;;;;;4.53;2.90;;;;;;;;;;5095134;28;20473;-69
2021/08/22 09:13:04;;;;;;;4.88;3.08;;;;;;;;;;5112872;28;20395;-69
2021/08/22 09:16:07;;;;;;;4.43;2.90;;;;;;;;;;5115213;28;20051;-69
2021/08/22 09:19:17;;;;;;;5.68;3.28;;;;;;;;;;5100300;28;20048;-69
2021/08/22 09:22:13;;;;;;;6.00;3.03;;;;;;;;;;5113025;28;20055;-69
2021/08/22 09:25:19;;;;;;;8.27;3.17;;;;;;;;;;5111346;28;20044;-69
2021/08/22 09:28:42;;;;;;;5.57;3.07;;;;;;;;;;5111299;28;20625;-69
2021/08/22 09:31:54;;;;;;;5.07;2.95;;;;;;;;;;5109399;28;20101;-70
2021/08/22 09:35:04;;;;;;;6.03;3.15;;;;;;;;;;5108463;28;20054;-70
2021/08/22 09:38:20;;;;;;;4.50;3.15;;;;;;;;;;5102786;28;20139;-69
2021/08/22 09:41:24;;;;;;;5.43;2.63;;;;;;;;;;5102080;28;20045;-69
2021/08/22 09:44:28;;;;;;;6.40;3.00;;;;;;;;;;5094949;28;20054;-69
2021/08/22 09:47:30;;;;;;;4.60;2.85;;;;;;;;;;5106756;28;20059;-68
2021/08/22 09:50:32;;;;;;;4.90;3.30;;;;;;;;;;5087733;28;20048;-69
2021/08/22 09:53:45;;;;;;;4.82;3.17;;;;;;;;;;5102787;28;20468;-69
2021/08/22 09:56:49;;;;;;;6.00;3.33;;;;;;;;;;5066848;28;20446;-69
2021/08/22 10:00:04;;;;;;;4.45;2.70;;;;;;;;;;5114391;28;20058;-70
2021/08/22 10:03:06;;;;;;;6.43;3.08;;;;;;;;;;5051071;28;20060;-69
2021/08/22 10:06:05;;;;;;;4.05;2.67;;;;;;;;;;5114484;28;20384;-68
2021/08/22 10:08:37;;;;;;;4.40;2.80;;;;;;;;;;5113509;28;20044;-68
2021/08/22 10:11:04;;;;;;;5.07;2.80;;;;;;;;;;5108973;28;20062;-68
2021/08/22 10:13:31;;;;;;;6.00;2.97;;;;;;;;;;5113628;28;20052;-68
2021/08/22 10:15:58;;;;;;;4.47;2.83;;;;;;;;;;5114127;28;20058;-69
2021/08/22 10:18:26;;;;;;;5.35;3.05;;;;;;;;;;5113982;28;20495;-68
2021/08/22 10:20:53;;;;;;;8.40;3.15;;;;;;;;;;5123658;27;20595;-68
2021/08/22 10:23:53;;;;;;;5.03;3.15;;;;;;;;;;5133663;27;20047;-68
2021/08/22 10:26:45;;;;;;;7.40;3.53;;;;;;;;;;5070558;28;20049;-70
2021/08/22 10:29:12;;;;;;;4.68;2.90;;;;;;;;;;5131003;27;20047;-70
2021/08/22 10:32:07;;;;;;;7.47;3.50;;;;;;;;;;5116169;27;20810;-68
2021/08/22 10:34:36;;;;;;;5.83;3.07;;;;;;;;;;5111150;28;20055;-68
2021/08/22 10:37:25;;;;;;;4.72;3.15;;;;;;;;;;5113481;28;20067;-68
2021/08/22 10:39:51;;;;;;;4.88;2.90;;;;;;;;;;5112380;28;20523;-68
2021/08/22 10:42:18;;;;;;;5.40;2.83;;;;;;;;;;5113040;28;20055;-68
2021/08/22 10:44:45;;;;;;;4.63;2.85;;;;;;;;;;5113515;28;20073;-68
2021/08/22 10:47:12;;;;;;;7.72;4.03;;;;;;;;;;5113760;28;20039;-68
2021/08/22 10:50:02;;;;;;;5.30;3.20;;;;;;;;;;5113461;28;20060;-68
2021/08/22 10:52:29;;;;;;;5.50;3.33;;;;;;;;;;5133479;27;20074;-68
2021/08/22 10:55:32;;;;;;;4.95;2.75;;;;;;;;;;5133500;27;20403;-68
2021/08/22 10:57:59;;;;;;;5.15;3.17;;;;;;;;;;5029952;28;20095;-70
2021/08/22 11:00:26;;;;;;;5.40;2.60;;;;;;;;;;5026021;28;20124;-68
2021/08/22 11:02:53;;;;;;;4.95;3.28;;;;;;;;;;5069488;27;20396;-68
2021/08/22 11:05:22;;;;;;;4.13;2.90;;;;;;;;;;5125009;27;20047;-69
2021/08/22 11:07:51;;;;;;;6.43;3.00;;;;;;;;;;5127556;27;20764;-68
2021/08/22 11:10:19;;;;;;;6.15;3.40;;;;;;;;;;5126414;27;20058;-68
2021/08/22 11:12:45;;;;;;;4.45;3.10;;;;;;;;;;5131561;27;20054;-68
2021/08/22 11:15:25;;;;;;;5.53;3.08;;;;;;;;;;5118192;27;20051;-68
2021/08/22 11:17:53;;;;;;;4.85;3.10;;;;;;;;;;5120903;27;20039;-71
2021/08/22 11:20:23;;;;;;;4.68;2.90;;;;;;;;;;5125173;27;20058;-68
2021/08/22 11:22:55;;;;;;;4.88;3.17;;;;;;;;;;5113076;28;20048;-69
2021/08/22 11:25:25;;;;;;;3.80;2.83;;;;;;;;;;5113450;27;20473;-69
2021/08/22 11:28:04;;;;;;;3.80;2.55;;;;;;;;;;5125216;27;20047;-68
2021/08/22 11:30:30;;;;;;;4.20;2.80;;;;;;;;;;5133043;27;20043;-68
2021/08/22 11:32:58;;;;;;;6.90;3.30;;;;;;;;;;5132094;27;20039;-68
2021/08/22 11:35:26;;;;;;;5.97;3.03;;;;;;;;;;5132424;27;20075;-70
2021/08/22 11:37:54;;;;;;;5.53;3.05;;;;;;;;;;5133143;27;20076;-70
2021/08/22 11:40:23;;;;;;;5.00;3.22;;;;;;;;;;5132919;27;20159;-69
2021/08/22 11:42:50;;;;;;;4.32;2.75;;;;;;;;;;5133182;27;20462;-69
2021/08/22 11:45:18;;;;;;;4.63;2.85;;;;;;;;;;5132966;27;20053;-69
2021/08/22 11:47:46;;;;;;;4.85;3.55;;;;;;;;;;5129112;27;20051;-70
2021/08/22 11:50:14;;;;;;;4.95;3.28;;;;;;;;;;5128356;27;20039;-70
2021/08/22 11:52:45;;;;;;;6.40;4.13;;;;;;;;;;5130386;27;20058;-70
2021/08/22 11:55:13;;;;;;;4.55;3.13;;;;;;;;;;5124774;27;20048;-70
2021/08/22 11:57:40;;;;;;;4.90;3.33;;;;;;;;;;5112047;28;20050;-70
2021/08/22 12:00:08;;;;;;;4.70;3.00;;;;;;;;;;5113780;27;20048;-71
2021/08/22 12:02:35;;;;;;;7.07;3.00;;;;;;;;;;5131951;27;20050;-70
2021/08/22 12:05:19;;;;;;;6.25;3.25;;;;;;;;;;5131774;27;20054;-70
2021/08/22 12:07:48;;;;;;;6.32;3.10;;;;;;;;;;5122788;27;20043;-70
2021/08/22 12:10:23;;;;;;;7.05;3.58;;;;;;;;;;5132376;27;20046;-70
2021/08/22 12:12:50;;;;;;;7.15;3.70;;;;;;;;;;5132735;27;20399;-70
2021/08/22 12:15:16;;;;;;;5.00;3.00;;;;;;;;;;5132230;28;20051;-70
2021/08/22 12:17:43;;;;;;;5.63;3.40;;;;;;;;;;5117370;28;20124;-70
2021/08/22 12:20:21;;;;;;;5.93;3.25;;;;;;;;;;5123076;28;20051;-69
2021/08/22 12:23:06;;;;;;;4.20;2.88;;;;;;;;;;5124717;28;20039;-70
2021/08/22 12:25:34;;;;;;;5.53;2.90;;;;;;;;;;5125075;28;20055;-70
2021/08/22 12:28:24;;;;;;;5.22;3.10;;;;;;;;;;5123771;28;20138;-70
2021/08/22 12:31:06;;;;;;;5.93;3.33;;;;;;;;;;5126303;28;20050;-70
2021/08/22 12:33:33;;;;;;;5.95;3.10;;;;;;;;;;5122934;28;20053;-70
2021/08/22 12:36:05;;;;;;;4.53;2.90;;;;;;;;;;5127829;28;20050;-70
2021/08/22 12:38:43;;;;;;;4.78;3.00;;;;;;;;;;5125681;28;20045;-70
2021/08/22 12:41:38;;;;;;;6.25;2.72;;;;;;;;;;5125477;28;20047;-68
2021/08/22 12:44:06;;;;;;;5.45;3.20;;;;;;;;;;5086769;28;20055;-68
2021/08/22 12:46:34;;;;;;;4.47;3.00;;;;;;;;;;5118876;28;20412;-69
2021/08/22 12:49:02;;;;;;;4.25;2.95;;;;;;;;;;5123834;28;20051;-68
2021/08/22 12:51:29;;;;;;;4.85;3.47;;;;;;;;;;5131819;28;20119;-69
2021/08/22 12:53:58;;;;;;;4.97;3.60;;;;;;;;;;5131905;28;20062;-69
2021/08/22 12:56:25;;;;;;;6.03;3.15;;;;;;;;;;5131973;28;20043;-70
2021/08/22 12:58:53;;;;;;;4.97;2.80;;;;;;;;;;5132295;28;20045;-69
2021/08/22 13:01:20;;;;;;;5.10;2.70;;;;;;;;;;5132585;27;20125;-70
2021/08/22 13:03:46;;;;;;;3.72;2.20;;;;;;;;;;5136002;27;20055;-69
2021/08/22 13:06:13;;;;;;;6.05;2.90;;;;;;;;;;5135879;27;20047;-69
2021/08/22 13:08:39;;;;;;;4.95;2.42;;;;;;;;;;5135691;27;20049;-70
2021/08/22 13:11:07;;;;;;;4.78;2.47;;;;;;;;;;5135805;27;20047;-69
2021/08/22 13:13:35;;;;;;;6.32;2.33;;;;;;;;;;5135592;27;20055;-69
2021/08/22 13:16:02;;;;;;;4.95;2.90;;;;;;;;;;5135520;27;20467;-67
2021/08/22 13:18:32;;;;;;;6.55;3.03;;;;;;;;;;5135667;27;20392;-69
2021/08/22 13:21:00;;;;;;;8.73;2.92;;;;;;;;;;5135605;27;20051;-68
2021/08/22 13:23:26;;;;;;;6.07;3.03;;;;;;;;;;5135859;27;20445;-67
2021/08/22 13:25:52;;;;;;;8.93;3.05;;;;;;;;;;5135714;27;20056;-67
2021/08/22 13:28:20;;;;;;;7.07;3.28;;;;;;;;;;5135697;27;20043;-67
2021/08/22 13:30:47;;;;;;;4.90;2.97;;;;;;;;;;5135349;27;20406;-67
2021/08/22 13:33:13;;;;;;;5.00;2.65;;;;;;;;;;5135304;27;20750;-67
2021/08/22 13:35:40;;;;;;;5.75;2.80;;;;;;;;;;5134152;27;20055;-67
2021/08/22 13:38:06;;;;;;;9.02;3.10;;;;;;;;;;5135426;27;20039;-67
2021/08/22 13:40:33;;;;;;;8.63;2.72;;;;;;;;;;5135475;27;20054;-67
2021/08/22 13:42:59;;;;;;;7.50;3.20;;;;;;;;;;5135333;27;20047;-67
2021/08/22 13:45:27;;;;;;;5.78;3.15;;;;;;;;;;5135047;27;20051;-67
2021/08/22 13:47:54;;;;;;;7.30;3.03;;;;;;;;;;5135357;27;20063;-67
2021/08/22 13:50:21;;;;;;;6.47;3.22;;;;;;;;;;5134997;27;20058;-67
2021/08/22 13:52:47;;;;;;;5.90;3.15;;;;;;;;;;5135217;27;20475;-67
2021/08/22 13:55:14;;;;;;;7.20;3.45;;;;;;;;;;5135322;27;20399;-67
2021/08/22 13:57:41;;;;;;;6.55;3.28;;;;;;;;;;5135348;27;20487;-67
2021/08/22 14:00:08;;;;;;;6.57;3.45;;;;;;;;;;5135127;27;20043;-67
2021/08/22 14:02:36;;;;;;;5.45;3.40;;;;;;;;;;5134728;27;20047;-66
2021/08/22 14:05:03;;;;;;;5.82;2.80;;;;;;;;;;5134798;27;20043;-66
2021/08/22 14:07:29;;;;;;;6.75;3.53;;;;;;;;;;5132936;27;20058;-67
2021/08/22 14:09:56;;;;;;;6.60;3.28;;;;;;;;;;5134890;27;20483;-66
2021/08/22 14:12:22;;;;;;;5.22;2.78;;;;;;;;;;5134176;27;20059;-66
2021/08/22 14:14:49;;;;;;;4.45;2.78;;;;;;;;;;5113546;28;20058;-66
2021/08/22 14:17:16;;;;;;;5.75;3.13;;;;;;;;;;5114046;28;20055;-66
2021/08/22 14:19:45;;;;;;;4.97;2.50;;;;;;;;;;5114429;27;20047;-67
2021/08/22 14:22:13;;;;;;;4.68;3.28;;;;;;;;;;5134512;27;20051;-67
2021/08/22 14:24:40;;;;;;;6.05;3.33;;;;;;;;;;5134534;27;20051;-67
2021/08/22 14:27:07;;;;;;;5.15;3.10;;;;;;;;;;5134459;27;20051;-67
2021/08/22 14:29:33;;;;;;;5.13;2.97;;;;;;;;;;5134540;27;20062;-67
2021/08/22 14:32:00;;;;;;;6.80;3.28;;;;;;;;;;5134637;27;20043;-67
2021/08/22 14:34:27;;;;;;;4.63;3.00;;;;;;;;;;5133312;27;20058;-67
2021/08/22 14:36:55;;;;;;;7.05;3.20;;;;;;;;;;5132827;27;20047;-67
2021/08/22 14:39:21;;;;;;;8.07;3.30;;;;;;;;;;5134140;27;20050;-67
2021/08/22 14:41:48;;;;;;;5.40;3.47;;;;;;;;;;5134057;27;20807;-67
2021/08/22 14:44:14;;;;;;;5.93;3.20;;;;;;;;;;5133787;27;20043;-67
2021/08/22 14:46:41;;;;;;;4.78;3.22;;;;;;;;;;5133434;27;20403;-67
2021/08/22 14:49:08;;;;;;;7.80;3.15;;;;;;;;;;5134145;27;20642;-67
2021/08/22 14:51:35;;;;;;;4.93;3.20;;;;;;;;;;5133939;27;20047;-67
2021/08/22 14:54:03;;;;;;;5.15;3.08;;;;;;;;;;5134043;27;20054;-67
2021/08/22 14:56:30;;;;;;;7.75;3.15;;;;;;;;;;5130945;27;20058;-67
2021/08/22 14:58:57;;;;;;;7.72;3.40;;;;;;;;;;5133210;27;20529;-68